sensor_id;sensor_type;location;lat;lon;timestamp;pressure;altitude;pressure_sealevel;temperature;humidity
70555;BME280;58104;52.744;15.242;2023-04-29T00:02:08;100352.99;;;18.75;37.88
70555;BME280;58104;52.744;15.242;2023-04-29T00:04:34;100353.97;;;18.92;37.60
70555;BME280;58104;52.744;15.242;2023-04-29T00:07:00;100354.51;;;18.73;37.74
70555;BME280;58104;52.744;15.242;2023-04-29T00:09:25;100351.58;;;18.55;38.16
70555;BME280;58104;52.744;15.242;2023-04-29T00:11:51;100353.70;;;18.50;38.40
70555;BME280;58104;52.744;15.242;2023-04-29T00:14:16;100352.49;;;18.61;38.30
70555;BME280;58104;52.744;15.242;2023-04-29T00:16:41;100352.52;;;18.48;38.56
70555;BME280;58104;52.744;15.242;2023-04-29T00:19:07;100350.92;;;18.49;38.52
70555;BME280;58104;52.744;15.242;2023-04-29T00:21:32;100349.37;;;18.44;38.54
70555;BME280;58104;52.744;15.242;2023-04-29T00:23:58;100349.51;;;18.50;38.45
70555;BME280;58104;52.744;15.242;2023-04-29T00:26:24;100347.54;;;18.48;38.68
70555;BME280;58104;52.744;15.242;2023-04-29T00:28:50;100344.49;;;18.51;38.71
70555;BME280;58104;52.744;15.242;2023-04-29T00:31:14;100340.52;;;18.76;38.26
70555;BME280;58104;52.744;15.242;2023-04-29T00:33:40;100342.19;;;18.56;38.45
70555;BME280;58104;52.744;15.242;2023-04-29T00:36:06;100342.38;;;18.47;38.79
70555;BME280;58104;52.744;15.242;2023-04-29T00:38:31;100342.63;;;18.54;38.55
70555;BME280;58104;52.744;15.242;2023-04-29T00:40:56;100340.79;;;18.66;38.59
70555;BME280;58104;52.744;15.242;2023-04-29T00:43:22;100339.13;;;18.64;38.16
70555;BME280;58104;52.744;15.242;2023-04-29T00:45:47;100337.75;;;18.67;38.59
70555;BME280;58104;52.744;15.242;2023-04-29T00:48:13;100340.94;;;18.43;39.22
70555;BME280;58104;52.744;15.242;2023-04-29T00:50:38;100336.68;;;18.29;39.72
70555;BME280;58104;52.744;15.242;2023-04-29T00:53:04;100335.98;;;18.42;39.83
70555;BME280;58104;52.744;15.242;2023-04-29T00:55:29;100332.53;;;18.39;40.10
70555;BME280;58104;52.744;15.242;2023-04-29T00:57:55;100331.29;;;18.51;39.81
70555;BME280;58104;52.744;15.242;2023-04-29T01:00:20;100329.48;;;18.39;40.22
70555;BME280;58104;52.744;15.242;2023-04-29T01:02:46;100325.38;;;18.37;40.50
70555;BME280;58104;52.744;15.242;2023-04-29T01:05:11;100323.75;;;18.45;40.45
70555;BME280;58104;52.744;15.242;2023-04-29T01:07:44;100321.84;;;18.31;40.34
70555;BME280;58104;52.744;15.242;2023-04-29T01:10:08;100321.64;;;18.38;40.38
70555;BME280;58104;52.744;15.242;2023-04-29T01:12:32;100322.00;;;18.37;40.58
70555;BME280;58104;52.744;15.242;2023-04-29T01:15:03;100315.13;;;18.42;40.50
70555;BME280;58104;52.744;15.242;2023-04-29T01:17:24;100314.45;;;18.51;40.34
70555;BME280;58104;52.744;15.242;2023-04-29T01:19:47;100312.79;;;18.46;40.31
70555;BME280;58104;52.744;15.242;2023-04-29T01:22:10;100311.06;;;18.43;40.18
70555;BME280;58104;52.744;15.242;2023-04-29T01:24:36;100310.43;;;18.45;40.21
70555;BME280;58104;52.744;15.242;2023-04-29T01:27:10;100310.52;;;18.35;40.30
70555;BME280;58104;52.744;15.242;2023-04-29T01:29:34;100311.25;;;18.37;40.50
70555;BME280;58104;52.744;15.242;2023-04-29T01:32:03;100310.18;;;18.41;40.34
70555;BME280;58104;52.744;15.242;2023-04-29T01:34:25;100312.28;;;18.46;40.24
70555;BME280;58104;52.744;15.242;2023-04-29T01:36:50;100311.89;;;18.30;40.39
70555;BME280;58104;52.744;15.242;2023-04-29T01:39:17;100309.69;;;18.26;40.46
70555;BME280;58104;52.744;15.242;2023-04-29T01:41:41;100306.89;;;18.25;40.56
70555;BME280;58104;52.744;15.242;2023-04-29T01:44:02;100306.38;;;18.23;40.79
70555;BME280;58104;52.744;15.242;2023-04-29T01:46:27;100306.08;;;18.12;40.90
70555;BME280;58104;52.744;15.242;2023-04-29T01:48:52;100306.01;;;18.24;41.06
70555;BME280;58104;52.744;15.242;2023-04-29T01:51:17;100307.34;;;18.19;40.98
70555;BME280;58104;52.744;15.242;2023-04-29T01:53:43;100302.81;;;18.21;40.95
70555;BME280;58104;52.744;15.242;2023-04-29T01:56:09;100299.27;;;18.20;40.89
70555;BME280;58104;52.744;15.242;2023-04-29T01:58:35;100298.34;;;18.18;41.23
70555;BME280;58104;52.744;15.242;2023-04-29T02:01:00;100295.86;;;18.15;41.33
70555;BME280;58104;52.744;15.242;2023-04-29T02:03:26;100295.51;;;18.14;41.29
70555;BME280;58104;52.744;15.242;2023-04-29T02:05:51;100293.22;;;18.13;41.31
70555;BME280;58104;52.744;15.242;2023-04-29T02:08:17;100292.98;;;18.27;41.07
70555;BME280;58104;52.744;15.242;2023-04-29T02:10:51;100294.46;;;18.27;41.27
70555;BME280;58104;52.744;15.242;2023-04-29T02:13:08;100298.61;;;18.28;40.80
70555;BME280;58104;52.744;15.242;2023-04-29T02:15:33;100299.26;;;18.32;41.18
70555;BME280;58104;52.744;15.242;2023-04-29T02:17:59;100292.76;;;18.34;41.15
70555;BME280;58104;52.744;15.242;2023-04-29T02:20:24;100288.76;;;18.37;41.26
70555;BME280;58104;52.744;15.242;2023-04-29T02:22:50;100291.21;;;18.37;41.42
70555;BME280;58104;52.744;15.242;2023-04-29T02:25:15;100288.17;;;18.30;41.56
70555;BME280;58104;52.744;15.242;2023-04-29T02:27:41;100287.46;;;18.39;41.69
70555;BME280;58104;52.744;15.242;2023-04-29T02:30:07;100285.86;;;18.27;41.75
70555;BME280;58104;52.744;15.242;2023-04-29T02:32:33;100285.99;;;18.34;41.67
70555;BME280;58104;52.744;15.242;2023-04-29T02:34:58;100286.80;;;18.25;41.67
70555;BME280;58104;52.744;15.242;2023-04-29T02:37:24;100284.94;;;18.46;41.46
70555;BME280;58104;52.744;15.242;2023-04-29T02:39:50;100281.26;;;18.39;41.66
70555;BME280;58104;52.744;15.242;2023-04-29T02:42:15;100278.73;;;18.24;41.93
70555;BME280;58104;52.744;15.242;2023-04-29T02:44:40;100278.54;;;18.25;42.24
70555;BME280;58104;52.744;15.242;2023-04-29T02:47:06;100273.66;;;18.19;42.09
70555;BME280;58104;52.744;15.242;2023-04-29T02:49:31;100271.41;;;18.12;42.21
70555;BME280;58104;52.744;15.242;2023-04-29T02:51:57;100269.51;;;18.19;42.19
70555;BME280;58104;52.744;15.242;2023-04-29T02:54:22;100270.59;;;18.37;41.92
70555;BME280;58104;52.744;15.242;2023-04-29T02:56:47;100272.81;;;18.18;42.08
70555;BME280;58104;52.744;15.242;2023-04-29T02:59:13;100272.42;;;18.21;42.24
70555;BME280;58104;52.744;15.242;2023-04-29T03:01:38;100272.63;;;18.24;42.23
70555;BME280;58104;52.744;15.242;2023-04-29T03:04:04;100271.43;;;18.24;42.31
70555;BME280;58104;52.744;15.242;2023-04-29T03:06:29;100270.21;;;18.20;42.68
70555;BME280;58104;52.744;15.242;2023-04-29T03:08:54;100267.74;;;18.23;42.60
70555;BME280;58104;52.744;15.242;2023-04-29T03:11:20;100266.99;;;18.23;42.59
70555;BME280;58104;52.744;15.242;2023-04-29T03:13:45;100263.97;;;18.21;42.82
70555;BME280;58104;52.744;15.242;2023-04-29T03:16:10;100262.16;;;18.24;42.92
70555;BME280;58104;52.744;15.242;2023-04-29T03:18:36;100254.94;;;18.20;42.68
70555;BME280;58104;52.744;15.242;2023-04-29T03:21:02;100252.25;;;18.13;42.90
70555;BME280;58104;52.744;15.242;2023-04-29T03:23:27;100252.43;;;18.19;42.52
70555;BME280;58104;52.744;15.242;2023-04-29T03:25:53;100255.76;;;18.33;42.68
70555;BME280;58104;52.744;15.242;2023-04-29T03:28:19;100254.91;;;18.43;42.61
70555;BME280;58104;52.744;15.242;2023-04-29T03:30:44;100251.93;;;18.44;42.37
70555;BME280;58104;52.744;15.242;2023-04-29T03:33:10;100248.25;;;18.47;42.37
70555;BME280;58104;52.744;15.242;2023-04-29T03:35:35;100250.76;;;18.40;42.81
70555;BME280;58104;52.744;15.242;2023-04-29T03:38:01;100256.93;;;18.27;42.90
70555;BME280;58104;52.744;15.242;2023-04-29T03:40:26;100257.04;;;18.32;43.07
70555;BME280;58104;52.744;15.242;2023-04-29T03:42:52;100252.56;;;18.24;43.37
70555;BME280;58104;52.744;15.242;2023-04-29T03:45:18;100253.80;;;18.34;43.23
70555;BME280;58104;52.744;15.242;2023-04-29T03:47:43;100254.80;;;18.23;43.21
70555;BME280;58104;52.744;15.242;2023-04-29T03:50:09;100249.86;;;18.21;43.48
70555;BME280;58104;52.744;15.242;2023-04-29T03:52:34;100253.17;;;18.29;43.42
70555;BME280;58104;52.744;15.242;2023-04-29T03:54:59;100251.29;;;18.35;43.32
70555;BME280;58104;52.744;15.242;2023-04-29T03:57:25;100249.82;;;18.38;43.26
70555;BME280;58104;52.744;15.242;2023-04-29T03:59:51;100252.52;;;18.30;43.27
70555;BME280;58104;52.744;15.242;2023-04-29T04:02:17;100253.93;;;18.27;43.46
70555;BME280;58104;52.744;15.242;2023-04-29T04:04:42;100255.67;;;18.31;43.33
70555;BME280;58104;52.744;15.242;2023-04-29T04:07:08;100261.37;;;18.37;43.16
70555;BME280;58104;52.744;15.242;2023-04-29T04:09:33;100265.23;;;18.47;43.17
70555;BME280;58104;52.744;15.242;2023-04-29T04:11:58;100266.23;;;18.41;43.34
70555;BME280;58104;52.744;15.242;2023-04-29T04:14:24;100262.68;;;18.25;43.34
70555;BME280;58104;52.744;15.242;2023-04-29T04:16:49;100258.19;;;18.40;43.28
70555;BME280;58104;52.744;15.242;2023-04-29T04:19:14;100261.72;;;18.22;43.54
70555;BME280;58104;52.744;15.242;2023-04-29T04:21:40;100262.66;;;18.39;43.52
70555;BME280;58104;52.744;15.242;2023-04-29T04:24:06;100257.27;;;18.38;43.46
70555;BME280;58104;52.744;15.242;2023-04-29T04:26:31;100255.44;;;18.24;43.58
70555;BME280;58104;52.744;15.242;2023-04-29T04:28:56;100252.67;;;18.25;43.49
70555;BME280;58104;52.744;15.242;2023-04-29T04:31:22;100255.38;;;18.26;43.55
70555;BME280;58104;52.744;15.242;2023-04-29T04:33:47;100249.36;;;18.35;43.51
70555;BME280;58104;52.744;15.242;2023-04-29T04:36:13;100251.84;;;18.37;43.58
70555;BME280;58104;52.744;15.242;2023-04-29T04:38:39;100246.08;;;18.34;43.58
70555;BME280;58104;52.744;15.242;2023-04-29T04:41:05;100243.50;;;18.39;43.59
70555;BME280;58104;52.744;15.242;2023-04-29T04:43:29;100241.24;;;18.27;43.57
70555;BME280;58104;52.744;15.242;2023-04-29T04:45:54;100240.73;;;18.39;43.54
70555;BME280;58104;52.744;15.242;2023-04-29T04:48:20;100244.25;;;18.29;43.48
70555;BME280;58104;52.744;15.242;2023-04-29T04:50:45;100246.59;;;18.33;43.68
70555;BME280;58104;52.744;15.242;2023-04-29T04:53:10;100248.19;;;18.37;43.47
70555;BME280;58104;52.744;15.242;2023-04-29T04:55:36;100253.46;;;18.45;43.39
70555;BME280;58104;52.744;15.242;2023-04-29T04:58:01;100248.00;;;18.48;43.28
70555;BME280;58104;52.744;15.242;2023-04-29T05:00:26;100247.18;;;18.42;43.66
70555;BME280;58104;52.744;15.242;2023-04-29T05:02:51;100251.06;;;18.50;43.66
70555;BME280;58104;52.744;15.242;2023-04-29T05:05:17;100250.76;;;18.36;43.69
70555;BME280;58104;52.744;15.242;2023-04-29T05:07:42;100252.18;;;18.37;43.73
70555;BME280;58104;52.744;15.242;2023-04-29T05:10:09;100251.08;;;18.37;43.80
70555;BME280;58104;52.744;15.242;2023-04-29T05:12:33;100248.28;;;18.32;44.01
70555;BME280;58104;52.744;15.242;2023-04-29T05:14:58;100248.42;;;18.44;43.99
70555;BME280;58104;52.744;15.242;2023-04-29T05:17:24;100247.58;;;18.47;43.85
70555;BME280;58104;52.744;15.242;2023-04-29T05:19:49;100244.21;;;18.51;43.82
70555;BME280;58104;52.744;15.242;2023-04-29T05:22:15;100247.77;;;18.49;43.74
70555;BME280;58104;52.744;15.242;2023-04-29T05:24:41;100251.77;;;18.51;43.59
70555;BME280;58104;52.744;15.242;2023-04-29T05:27:06;100255.71;;;18.58;43.66
70555;BME280;58104;52.744;15.242;2023-04-29T05:29:31;100253.51;;;18.58;43.72
70555;BME280;58104;52.744;15.242;2023-04-29T05:31:57;100255.39;;;18.46;43.91
70555;BME280;58104;52.744;15.242;2023-04-29T05:34:22;100253.92;;;18.41;43.97
70555;BME280;58104;52.744;15.242;2023-04-29T05:36:48;100255.43;;;18.53;43.80
70555;BME280;58104;52.744;15.242;2023-04-29T05:39:13;100256.51;;;18.50;43.89
70555;BME280;58104;52.744;15.242;2023-04-29T05:41:38;100254.28;;;18.44;43.95
70555;BME280;58104;52.744;15.242;2023-04-29T05:44:04;100253.41;;;18.43;44.02
70555;BME280;58104;52.744;15.242;2023-04-29T05:46:30;100255.23;;;18.38;44.23
70555;BME280;58104;52.744;15.242;2023-04-29T05:48:55;100258.56;;;18.48;44.07
70555;BME280;58104;52.744;15.242;2023-04-29T05:51:20;100254.19;;;18.40;43.81
70555;BME280;58104;52.744;15.242;2023-04-29T05:53:46;100256.69;;;18.42;44.05
70555;BME280;58104;52.744;15.242;2023-04-29T05:56:12;100260.29;;;18.38;44.19
70555;BME280;58104;52.744;15.242;2023-04-29T05:58:37;100261.18;;;18.42;44.42
70555;BME280;58104;52.744;15.242;2023-04-29T06:01:03;100262.56;;;18.40;44.41
70555;BME280;58104;52.744;15.242;2023-04-29T06:03:28;100262.97;;;18.46;44.44
70555;BME280;58104;52.744;15.242;2023-04-29T06:05:55;100266.96;;;18.41;44.43
70555;BME280;58104;52.744;15.242;2023-04-29T06:08:20;100267.83;;;18.44;44.23
70555;BME280;58104;52.744;15.242;2023-04-29T06:10:45;100268.38;;;18.43;43.98
70555;BME280;58104;52.744;15.242;2023-04-29T06:13:11;100272.02;;;18.44;44.80
70555;BME280;58104;52.744;15.242;2023-04-29T06:15:37;100268.82;;;18.42;44.92
70555;BME280;58104;52.744;15.242;2023-04-29T06:18:02;100269.20;;;18.54;44.92
70555;BME280;58104;52.744;15.242;2023-04-29T06:20:27;100265.91;;;18.52;44.90
70555;BME280;58104;52.744;15.242;2023-04-29T06:22:53;100268.11;;;18.60;44.76
70555;BME280;58104;52.744;15.242;2023-04-29T06:25:18;100267.81;;;18.70;44.73
70555;BME280;58104;52.744;15.242;2023-04-29T06:27:43;100269.06;;;18.72;44.43
70555;BME280;58104;52.744;15.242;2023-04-29T06:30:10;100271.59;;;18.63;44.33
70555;BME280;58104;52.744;15.242;2023-04-29T06:32:35;100276.67;;;18.66;44.43
70555;BME280;58104;52.744;15.242;2023-04-29T06:35:00;100279.10;;;18.63;44.46
70555;BME280;58104;52.744;15.242;2023-04-29T06:37:27;100279.52;;;18.68;44.43
70555;BME280;58104;52.744;15.242;2023-04-29T06:39:52;100282.54;;;18.59;44.44
70555;BME280;58104;52.744;15.242;2023-04-29T06:42:18;100282.36;;;18.67;44.33
70555;BME280;58104;52.744;15.242;2023-04-29T06:44:43;100281.55;;;18.59;44.53
70555;BME280;58104;52.744;15.242;2023-04-29T06:47:08;100282.87;;;18.60;44.58
70555;BME280;58104;52.744;15.242;2023-04-29T06:49:33;100283.42;;;18.75;44.37
70555;BME280;58104;52.744;15.242;2023-04-29T06:51:59;100281.53;;;18.66;44.30
70555;BME280;58104;52.744;15.242;2023-04-29T06:54:24;100281.72;;;18.78;44.43
70555;BME280;58104;52.744;15.242;2023-04-29T06:56:50;100277.24;;;18.90;44.03
70555;BME280;58104;52.744;15.242;2023-04-29T06:59:14;100278.67;;;18.85;44.45
70555;BME280;58104;52.744;15.242;2023-04-29T07:01:40;100274.13;;;18.97;44.63
70555;BME280;58104;52.744;15.242;2023-04-29T07:04:05;100279.88;;;18.40;44.55
70555;BME280;58104;52.744;15.242;2023-04-29T07:06:31;100276.26;;;18.38;44.65
70555;BME280;58104;52.744;15.242;2023-04-29T07:08:56;100272.92;;;18.35;44.09
70555;BME280;58104;52.744;15.242;2023-04-29T07:11:22;100277.40;;;18.56;43.50
70555;BME280;58104;52.744;15.242;2023-04-29T07:13:47;100277.19;;;18.66;43.40
70555;BME280;58104;52.744;15.242;2023-04-29T07:16:15;100277.73;;;18.44;43.55
70555;BME280;58104;52.744;15.242;2023-04-29T07:18:38;100280.53;;;18.45;43.53
70555;BME280;58104;52.744;15.242;2023-04-29T07:21:04;100283.05;;;18.69;43.02
70555;BME280;58104;52.744;15.242;2023-04-29T07:23:29;100283.47;;;18.63;43.24
70555;BME280;58104;52.744;15.242;2023-04-29T07:25:55;100280.84;;;18.62;43.33
70555;BME280;58104;52.744;15.242;2023-04-29T07:28:20;100278.55;;;18.73;43.41
70555;BME280;58104;52.744;15.242;2023-04-29T07:30:46;100278.93;;;18.50;43.75
70555;BME280;58104;52.744;15.242;2023-04-29T07:33:11;100281.31;;;18.29;44.57
70555;BME280;58104;52.744;15.242;2023-04-29T07:35:36;100286.36;;;18.38;44.57
70555;BME280;58104;52.744;15.242;2023-04-29T07:38:02;100287.12;;;18.39;44.39
70555;BME280;58104;52.744;15.242;2023-04-29T07:40:28;100288.93;;;18.35;44.54
70555;BME280;58104;52.744;15.242;2023-04-29T07:42:53;100291.86;;;18.62;43.91
70555;BME280;58104;52.744;15.242;2023-04-29T07:45:18;100295.11;;;18.43;44.64
70555;BME280;58104;52.744;15.242;2023-04-29T07:47:44;100298.92;;;18.45;44.25
70555;BME280;58104;52.744;15.242;2023-04-29T07:50:10;100301.45;;;18.69;43.80
70555;BME280;58104;52.744;15.242;2023-04-29T07:52:35;100304.84;;;18.44;44.60
70555;BME280;58104;52.744;15.242;2023-04-29T07:55:01;100305.56;;;18.75;44.04
70555;BME280;58104;52.744;15.242;2023-04-29T07:57:26;100307.86;;;18.69;43.94
70555;BME280;58104;52.744;15.242;2023-04-29T07:59:52;100309.65;;;18.69;44.35
70555;BME280;58104;52.744;15.242;2023-04-29T08:02:17;100306.89;;;18.83;44.28
70555;BME280;58104;52.744;15.242;2023-04-29T08:04:43;100308.19;;;18.70;44.73
70555;BME280;58104;52.744;15.242;2023-04-29T08:07:08;100309.17;;;18.66;45.05
70555;BME280;58104;52.744;15.242;2023-04-29T08:09:34;100307.29;;;18.90;43.79
70555;BME280;58104;52.744;15.242;2023-04-29T08:11:59;100309.87;;;18.84;44.19
70555;BME280;58104;52.744;15.242;2023-04-29T08:14:25;100311.79;;;18.67;45.05
70555;BME280;58104;52.744;15.242;2023-04-29T08:16:51;100314.16;;;18.72;45.26
70555;BME280;58104;52.744;15.242;2023-04-29T08:19:16;100311.70;;;18.68;45.70
70555;BME280;58104;52.744;15.242;2023-04-29T08:21:42;100315.64;;;18.59;45.64
70555;BME280;58104;52.744;15.242;2023-04-29T08:24:07;100314.33;;;18.80;45.52
70555;BME280;58104;52.744;15.242;2023-04-29T08:26:33;100314.14;;;18.62;45.85
70555;BME280;58104;52.744;15.242;2023-04-29T08:28:58;100311.34;;;18.58;46.09
70555;BME280;58104;52.744;15.242;2023-04-29T08:31:24;100313.81;;;18.58;46.31
70555;BME280;58104;52.744;15.242;2023-04-29T08:33:50;100315.96;;;18.49;46.12
70555;BME280;58104;52.744;15.242;2023-04-29T08:36:15;100317.44;;;18.50;45.99
70555;BME280;58104;52.744;15.242;2023-04-29T08:38:41;100320.12;;;18.43;46.25
70555;BME280;58104;52.744;15.242;2023-04-29T08:41:07;100323.77;;;18.50;45.93
70555;BME280;58104;52.744;15.242;2023-04-29T08:43:34;100327.14;;;18.48;46.02
70555;BME280;58104;52.744;15.242;2023-04-29T08:45:57;100331.89;;;18.62;45.62
70555;BME280;58104;52.744;15.242;2023-04-29T08:48:22;100331.98;;;18.66;45.49
70555;BME280;58104;52.744;15.242;2023-04-29T08:50:47;100331.38;;;18.79;45.22
70555;BME280;58104;52.744;15.242;2023-04-29T08:53:13;100330.74;;;18.63;45.52
70555;BME280;58104;52.744;15.242;2023-04-29T08:55:41;100331.76;;;18.60;45.67
70555;BME280;58104;52.744;15.242;2023-04-29T08:58:04;100329.44;;;18.58;45.68
70555;BME280;58104;52.744;15.242;2023-04-29T09:00:31;100332.30;;;18.56;45.66
70555;BME280;58104;52.744;15.242;2023-04-29T09:02:56;100335.60;;;18.62;45.55
70555;BME280;58104;52.744;15.242;2023-04-29T09:05:20;100335.93;;;18.64;45.66
70555;BME280;58104;52.744;15.242;2023-04-29T09:07:46;100336.01;;;18.60;45.85
70555;BME280;58104;52.744;15.242;2023-04-29T09:10:11;100335.04;;;18.59;45.66
70555;BME280;58104;52.744;15.242;2023-04-29T09:12:37;100335.19;;;18.56;45.80
70555;BME280;58104;52.744;15.242;2023-04-29T09:15:03;100340.64;;;18.50;45.77
70555;BME280;58104;52.744;15.242;2023-04-29T09:19:53;100342.59;;;18.50;46.09
70555;BME280;58104;52.744;15.242;2023-04-29T09:22:18;100343.78;;;18.54;45.77
70555;BME280;58104;52.744;15.242;2023-04-29T09:24:44;100347.47;;;18.54;45.82
70555;BME280;58104;52.744;15.242;2023-04-29T09:29:35;100354.47;;;18.58;45.95
70555;BME280;58104;52.744;15.242;2023-04-29T09:32:00;100353.95;;;18.54;46.11
70555;BME280;58104;52.744;15.242;2023-04-29T09:34:31;100355.56;;;18.64;46.12
70555;BME280;58104;52.744;15.242;2023-04-29T09:36:51;100356.82;;;18.52;46.08
70555;BME280;58104;52.744;15.242;2023-04-29T09:39:18;100358.69;;;18.49;46.40
70555;BME280;58104;52.744;15.242;2023-04-29T09:44:09;100362.48;;;18.43;46.45
70555;BME280;58104;52.744;15.242;2023-04-29T09:46:33;100361.06;;;18.52;46.22
70555;BME280;58104;52.744;15.242;2023-04-29T09:48:59;100364.80;;;18.69;45.73
70555;BME280;58104;52.744;15.242;2023-04-29T09:51:24;100366.57;;;18.67;46.08
70555;BME280;58104;52.744;15.242;2023-04-29T09:53:49;100364.65;;;18.62;46.33
70555;BME280;58104;52.744;15.242;2023-04-29T09:56:15;100368.80;;;18.56;46.33
70555;BME280;58104;52.744;15.242;2023-04-29T09:58:40;100373.12;;;18.68;46.02
70555;BME280;58104;52.744;15.242;2023-04-29T10:01:05;100373.82;;;18.72;45.75
70555;BME280;58104;52.744;15.242;2023-04-29T10:03:32;100374.38;;;18.73;46.13
70555;BME280;58104;52.744;15.242;2023-04-29T10:05:56;100375.04;;;18.66;46.24
70555;BME280;58104;52.744;15.242;2023-04-29T10:08:20;100378.47;;;18.70;46.17
70555;BME280;58104;52.744;15.242;2023-04-29T10:10:46;100379.86;;;18.69;46.41
70555;BME280;58104;52.744;15.242;2023-04-29T10:13:12;100383.92;;;18.53;46.66
70555;BME280;58104;52.744;15.242;2023-04-29T10:15:44;100384.91;;;18.49;46.63
70555;BME280;58104;52.744;15.242;2023-04-29T10:18:11;100384.70;;;18.64;46.42
70555;BME280;58104;52.744;15.242;2023-04-29T10:20:29;100387.76;;;18.63;46.48
70555;BME280;58104;52.744;15.242;2023-04-29T10:22:55;100390.43;;;18.66;46.42
70555;BME280;58104;52.744;15.242;2023-04-29T10:25:21;100391.16;;;18.64;46.82
70555;BME280;58104;52.744;15.242;2023-04-29T10:27:46;100391.74;;;18.51;46.90
70555;BME280;58104;52.744;15.242;2023-04-29T10:30:12;100394.01;;;18.59;47.00
70555;BME280;58104;52.744;15.242;2023-04-29T10:32:36;100397.47;;;18.56;46.63
70555;BME280;58104;52.744;15.242;2023-04-29T10:35:01;100397.62;;;18.63;46.82
70555;BME280;58104;52.744;15.242;2023-04-29T10:37:26;100398.49;;;18.56;46.83
70555;BME280;58104;52.744;15.242;2023-04-29T10:39:59;100401.97;;;18.47;47.33
70555;BME280;58104;52.744;15.242;2023-04-29T10:42:24;100401.18;;;18.43;47.23
70555;BME280;58104;52.744;15.242;2023-04-29T10:49:33;100403.19;;;18.43;47.12
70555;BME280;58104;52.744;15.242;2023-04-29T10:52:03;100404.35;;;18.52;47.09
70555;BME280;58104;52.744;15.242;2023-04-29T10:54:26;100406.29;;;18.58;47.06
70555;BME280;58104;52.744;15.242;2023-04-29T10:56:52;100407.37;;;18.54;47.02
70555;BME280;58104;52.744;15.242;2023-04-29T10:59:20;100408.96;;;18.53;46.99
70555;BME280;58104;52.744;15.242;2023-04-29T11:01:45;100409.71;;;18.48;46.92
70555;BME280;58104;52.744;15.242;2023-04-29T11:04:08;100408.32;;;18.42;47.19
70555;BME280;58104;52.744;15.242;2023-04-29T11:06:38;100409.28;;;18.47;47.06
70555;BME280;58104;52.744;15.242;2023-04-29T11:09:00;100413.00;;;18.46;47.23
70555;BME280;58104;52.744;15.242;2023-04-29T11:11:23;100412.83;;;18.49;46.99
70555;BME280;58104;52.744;15.242;2023-04-29T11:13:49;100411.70;;;18.55;47.17
70555;BME280;58104;52.744;15.242;2023-04-29T11:16:15;100414.29;;;18.61;46.74
70555;BME280;58104;52.744;15.242;2023-04-29T11:21:10;100419.22;;;18.54;47.33
70555;BME280;58104;52.744;15.242;2023-04-29T11:23:33;100419.05;;;18.58;47.38
70555;BME280;58104;52.744;15.242;2023-04-29T11:25:56;100423.32;;;18.67;47.38
70555;BME280;58104;52.744;15.242;2023-04-29T11:28:23;100428.64;;;18.58;47.48
70555;BME280;58104;52.744;15.242;2023-04-29T11:30:49;100432.36;;;18.57;47.36
70555;BME280;58104;52.744;15.242;2023-04-29T11:33:12;100434.72;;;18.47;47.53
70555;BME280;58104;52.744;15.242;2023-04-29T11:35:38;100433.85;;;18.55;47.64
70555;BME280;58104;52.744;15.242;2023-04-29T11:38:04;100434.25;;;18.58;47.51
70555;BME280;58104;52.744;15.242;2023-04-29T11:40:31;100438.86;;;18.58;47.61
70555;BME280;58104;52.744;15.242;2023-04-29T11:42:55;100441.52;;;18.60;47.43
70555;BME280;58104;52.744;15.242;2023-04-29T11:45:20;100445.97;;;18.55;47.54
70555;BME280;58104;52.744;15.242;2023-04-29T11:47:46;100449.60;;;18.62;47.82
70555;BME280;58104;52.744;15.242;2023-04-29T11:50:12;100451.99;;;18.63;47.65
70555;BME280;58104;52.744;15.242;2023-04-29T11:52:37;100452.47;;;18.65;47.40
70555;BME280;58104;52.744;15.242;2023-04-29T11:55:02;100452.62;;;18.68;47.46
70555;BME280;58104;52.744;15.242;2023-04-29T11:57:27;100456.81;;;18.64;47.79
70555;BME280;58104;52.744;15.242;2023-04-29T11:59:52;100456.77;;;18.63;47.62
70555;BME280;58104;52.744;15.242;2023-04-29T12:02:20;100460.23;;;18.53;48.24
70555;BME280;58104;52.744;15.242;2023-04-29T12:04:44;100467.87;;;19.14;49.38
70555;BME280;58104;52.744;15.242;2023-04-29T12:07:09;100473.47;;;19.09;49.47
70555;BME280;58104;52.744;15.242;2023-04-29T12:09:40;100474.01;;;18.88;49.40
70555;BME280;58104;52.744;15.242;2023-04-29T12:11:59;100485.99;;;18.74;49.17
70555;BME280;58104;52.744;15.242;2023-04-29T12:14:25;100489.39;;;18.90;48.89
70555;BME280;58104;52.744;15.242;2023-04-29T12:16:50;100493.16;;;18.98;48.18
70555;BME280;58104;52.744;15.242;2023-04-29T12:19:15;100494.30;;;18.98;48.02
70555;BME280;58104;52.744;15.242;2023-04-29T12:21:47;100496.73;;;18.95;47.78
70555;BME280;58104;52.744;15.242;2023-04-29T12:24:08;100500.81;;;19.02;47.15
70555;BME280;58104;52.744;15.242;2023-04-29T12:26:33;100505.94;;;18.95;47.70
70555;BME280;58104;52.744;15.242;2023-04-29T12:28:58;100508.04;;;18.79;47.59
70555;BME280;58104;52.744;15.242;2023-04-29T12:31:23;100509.00;;;18.86;47.40
70555;BME280;58104;52.744;15.242;2023-04-29T12:33:48;100506.44;;;18.90;47.23
70555;BME280;58104;52.744;15.242;2023-04-29T12:36:16;100508.24;;;19.11;47.40
70555;BME280;58104;52.744;15.242;2023-04-29T12:38:41;100512.45;;;19.12;47.45
70555;BME280;58104;52.744;15.242;2023-04-29T12:41:05;100516.51;;;18.97;47.49
70555;BME280;58104;52.744;15.242;2023-04-29T12:43:32;100513.98;;;19.14;47.45
70555;BME280;58104;52.744;15.242;2023-04-29T12:46:01;100514.97;;;19.04;46.81